sensor_id;sensor_type;location;lat;lon;timestamp;pressure;altitude;pressure_sealevel;temperature;humidity
20755;BME280;26385;48.470;7.938;2022-10-30T00:01:49;100265.69;;;18.15;73.99
20755;BME280;26385;48.470;7.938;2022-10-30T00:04:14;100263.97;;;18.14;74.55
20755;BME280;26385;48.470;7.938;2022-10-30T00:06:39;100267.53;;;18.09;74.80
20755;BME280;26385;48.470;7.938;2022-10-30T00:09:05;100264.88;;;18.07;75.24
20755;BME280;26385;48.470;7.938;2022-10-30T00:11:30;100271.00;;;18.09;75.66
20755;BME280;26385;48.470;7.938;2022-10-30T00:13:55;100271.91;;;18.05;76.38
20755;BME280;26385;48.470;7.938;2022-10-30T00:16:21;100272.81;;;17.98;77.42
20755;BME280;26385;48.470;7.938;2022-10-30T00:18:46;100257.97;;;17.98;77.24
20755;BME280;26385;48.470;7.938;2022-10-30T00:21:13;100265.19;;;17.61;79.99
20755;BME280;26385;48.470;7.938;2022-10-30T00:23:45;100264.44;;;17.44;81.07
20755;BME280;26385;48.470;7.938;2022-10-30T00:26:11;100262.78;;;17.22;80.91
20755;BME280;26385;48.470;7.938;2022-10-30T00:28:36;100255.75;;;17.36;80.31
20755;BME280;26385;48.470;7.938;2022-10-30T00:31:02;100260.16;;;17.32;77.95
20755;BME280;26385;48.470;7.938;2022-10-30T00:33:28;100259.38;;;17.10;78.75
20755;BME280;26385;48.470;7.938;2022-10-30T00:35:53;100259.47;;;16.86;79.87
20755;BME280;26385;48.470;7.938;2022-10-30T00:38:18;100260.28;;;16.97;79.66
20755;BME280;26385;48.470;7.938;2022-10-30T00:40:44;100260.22;;;17.12;78.34
20755;BME280;26385;48.470;7.938;2022-10-30T00:43:33;100253.31;;;16.96;78.39
20755;BME280;26385;48.470;7.938;2022-10-30T00:46:02;100258.59;;;16.90;78.42
20755;BME280;26385;48.470;7.938;2022-10-30T00:48:29;100264.63;;;17.01;78.01
20755;BME280;26385;48.470;7.938;2022-10-30T00:50:56;100254.22;;;16.86;79.03
20755;BME280;26385;48.470;7.938;2022-10-30T00:53:23;100262.91;;;16.89;79.24
20755;BME280;26385;48.470;7.938;2022-10-30T00:55:58;100262.09;;;16.83;80.17
20755;BME280;26385;48.470;7.938;2022-10-30T00:58:32;100269.88;;;17.03;79.07
20755;BME280;26385;48.470;7.938;2022-10-30T01:01:00;100258.59;;;16.84;79.67
20755;BME280;26385;48.470;7.938;2022-10-30T01:03:27;100260.34;;;16.73;80.79
20755;BME280;26385;48.470;7.938;2022-10-30T01:05:57;100264.72;;;16.68;81.17
20755;BME280;26385;48.470;7.938;2022-10-30T01:08:24;100271.72;;;16.53;81.58
20755;BME280;26385;48.470;7.938;2022-10-30T01:10:49;100268.22;;;16.45;81.21
20755;BME280;26385;48.470;7.938;2022-10-30T01:13:17;100270.00;;;16.42;81.11
20755;BME280;26385;48.470;7.938;2022-10-30T01:21:58;100252.53;;;16.70;79.50
20755;BME280;26385;48.470;7.938;2022-10-30T01:36:32;100240.41;;;16.23;82.25
20755;BME280;26385;48.470;7.938;2022-10-30T01:39:04;100239.53;;;16.16;82.89
20755;BME280;26385;48.470;7.938;2022-10-30T01:41:31;100230.81;;;16.17;82.53
20755;BME280;26385;48.470;7.938;2022-10-30T01:44:01;100241.25;;;16.19;81.26
20755;BME280;26385;48.470;7.938;2022-10-30T01:46:41;100236.91;;;16.12;81.62
20755;BME280;26385;48.470;7.938;2022-10-30T01:57:42;100233.44;;;15.93;83.57
20755;BME280;26385;48.470;7.938;2022-10-30T02:00:12;100232.56;;;15.83;83.92
20755;BME280;26385;48.470;7.938;2022-10-30T02:02:38;100235.13;;;15.56;84.82
20755;BME280;26385;48.470;7.938;2022-10-30T02:05:05;100228.13;;;15.55;85.07
20755;BME280;26385;48.470;7.938;2022-10-30T02:07:30;100227.34;;;15.74;84.09
20755;BME280;26385;48.470;7.938;2022-10-30T02:09:56;100232.56;;;15.66;82.80
20755;BME280;26385;48.470;7.938;2022-10-30T02:12:22;100219.50;;;15.74;81.44
20755;BME280;26385;48.470;7.938;2022-10-30T02:14:51;100228.22;;;15.64;82.67
20755;BME280;26385;48.470;7.938;2022-10-30T02:17:19;100222.13;;;15.65;82.53
20755;BME280;26385;48.470;7.938;2022-10-30T02:19:44;100221.25;;;15.66;82.14
20755;BME280;26385;48.470;7.938;2022-10-30T02:22:10;100232.53;;;15.80;81.34
20755;BME280;26385;48.470;7.938;2022-10-30T02:24:36;100208.19;;;15.86;80.59
20755;BME280;26385;48.470;7.938;2022-10-30T02:27:01;100219.50;;;15.88;80.64
20755;BME280;26385;48.470;7.938;2022-10-30T02:29:27;100218.66;;;15.98;80.68
20755;BME280;26385;48.470;7.938;2022-10-30T02:31:52;100208.19;;;15.69;81.74
20755;BME280;26385;48.470;7.938;2022-10-30T02:34:18;100210.78;;;15.70;82.16
20755;BME280;26385;48.470;7.938;2022-10-30T02:36:43;100205.56;;;15.61;83.28
20755;BME280;26385;48.470;7.938;2022-10-30T02:39:08;100202.09;;;15.67;81.88
20755;BME280;26385;48.470;7.938;2022-10-30T02:41:33;100202.94;;;15.63;81.87
20755;BME280;26385;48.470;7.938;2022-10-30T02:43:59;100198.56;;;15.60;82.34
20755;BME280;26385;48.470;7.938;2022-10-30T02:46:24;100202.94;;;15.61;81.79
20755;BME280;26385;48.470;7.938;2022-10-30T02:48:49;100201.19;;;15.48;82.68
20755;BME280;26385;48.470;7.938;2022-10-30T02:51:15;100201.16;;;15.39;81.70
20755;BME280;26385;48.470;7.938;2022-10-30T02:53:40;100195.13;;;15.64;80.57
20755;BME280;26385;48.470;7.938;2022-10-30T02:56:08;100201.25;;;15.72;80.49
20755;BME280;26385;48.470;7.938;2022-10-30T02:58:34;100200.34;;;15.72;79.96
20755;BME280;26385;48.470;7.938;2022-10-30T03:03:32;100208.19;;;15.67;80.52
20755;BME280;26385;48.470;7.938;2022-10-30T03:06:02;100203.78;;;15.59;81.07
20755;BME280;26385;48.470;7.938;2022-10-30T03:08:28;100212.56;;;15.73;80.78
20755;BME280;26385;48.470;7.938;2022-10-30T03:11:04;100204.69;;;15.88;79.83
20755;BME280;26385;48.470;7.938;2022-10-30T03:13:31;100203.84;;;15.89;79.91
20755;BME280;26385;48.470;7.938;2022-10-30T03:16:02;100210.81;;;15.99;79.14
20755;BME280;26385;48.470;7.938;2022-10-30T03:18:28;100211.69;;;15.83;79.35
20755;BME280;26385;48.470;7.938;2022-10-30T03:21:03;100211.66;;;15.88;79.37
20755;BME280;26385;48.470;7.938;2022-10-30T03:23:29;100211.69;;;15.91;78.52
20755;BME280;26385;48.470;7.938;2022-10-30T03:25:56;100222.13;;;15.75;79.27
20755;BME280;26385;48.470;7.938;2022-10-30T03:28:23;100208.13;;;15.52;80.87
20755;BME280;26385;48.470;7.938;2022-10-30T03:30:49;100207.28;;;15.58;80.76
20755;BME280;26385;48.470;7.938;2022-10-30T03:33:15;100215.09;;;15.41;81.06
20755;BME280;26385;48.470;7.938;2022-10-30T03:35:44;100213.34;;;15.46;81.27
20755;BME280;26385;48.470;7.938;2022-10-30T03:38:12;100213.41;;;15.61;79.69
20755;BME280;26385;48.470;7.938;2022-10-30T03:40:38;100224.72;;;15.65;79.21
20755;BME280;26385;48.470;7.938;2022-10-30T03:43:03;100218.56;;;15.52;79.76
20755;BME280;26385;48.470;7.938;2022-10-30T03:45:31;100220.38;;;15.64;78.95
20755;BME280;26385;48.470;7.938;2022-10-30T03:47:56;100219.47;;;15.56;79.84
20755;BME280;26385;48.470;7.938;2022-10-30T03:50:21;100223.78;;;15.41;80.12
20755;BME280;26385;48.470;7.938;2022-10-30T03:52:47;100229.84;;;15.37;80.95
20755;BME280;26385;48.470;7.938;2022-10-30T03:55:12;100221.94;;;15.08;82.48
20755;BME280;26385;48.470;7.938;2022-10-30T03:57:37;100232.31;;;14.96;82.98
20755;BME280;26385;48.470;7.938;2022-10-30T04:00:04;100221.88;;;14.95;83.15
20755;BME280;26385;48.470;7.938;2022-10-30T04:02:29;100236.66;;;14.89;83.41
20755;BME280;26385;48.470;7.938;2022-10-30T04:04:55;100228.78;;;14.79;83.40
20755;BME280;26385;48.470;7.938;2022-10-30T04:07:20;100229.72;;;14.91;82.47
20755;BME280;26385;48.470;7.938;2022-10-30T04:09:45;100230.53;;;14.86;82.71
20755;BME280;26385;48.470;7.938;2022-10-30T04:12:10;100227.09;;;14.90;82.78
20755;BME280;26385;48.470;7.938;2022-10-30T04:14:36;100229.72;;;14.91;82.67
20755;BME280;26385;48.470;7.938;2022-10-30T04:17:01;100235.91;;;15.18;81.02
20755;BME280;26385;48.470;7.938;2022-10-30T04:19:26;100228.06;;;15.21;80.77
20755;BME280;26385;48.470;7.938;2022-10-30T04:21:51;100236.75;;;15.17;80.57
20755;BME280;26385;48.470;7.938;2022-10-30T04:24:17;100232.38;;;15.13;80.46
20755;BME280;26385;48.470;7.938;2022-10-30T04:26:43;100234.13;;;15.11;79.92
20755;BME280;26385;48.470;7.938;2022-10-30T04:29:08;100230.72;;;15.30;79.01
20755;BME280;26385;48.470;7.938;2022-10-30T04:31:33;100235.03;;;15.17;80.26
20755;BME280;26385;48.470;7.938;2022-10-30T04:33:59;100243.66;;;15.03;80.20
20755;BME280;26385;48.470;7.938;2022-10-30T04:36:24;100237.53;;;14.95;80.60
20755;BME280;26385;48.470;7.938;2022-10-30T04:38:54;100235.84;;;15.03;80.18
20755;BME280;26385;48.470;7.938;2022-10-30T04:41:20;100224.56;;;15.13;79.69
20755;BME280;26385;48.470;7.938;2022-10-30T04:43:47;100229.84;;;15.34;78.63
20755;BME280;26385;48.470;7.938;2022-10-30T04:46:13;100231.53;;;15.20;78.42
20755;BME280;26385;48.470;7.938;2022-10-30T04:48:38;100238.53;;;15.27;77.89
20755;BME280;26385;48.470;7.938;2022-10-30T04:51:04;100237.66;;;15.22;78.17
20755;BME280;26385;48.470;7.938;2022-10-30T04:53:30;100233.31;;;15.27;78.09
20755;BME280;26385;48.470;7.938;2022-10-30T04:55:55;100235.03;;;15.28;78.02
20755;BME280;26385;48.470;7.938;2022-10-30T04:58:20;100231.53;;;15.17;78.33
20755;BME280;26385;48.470;7.938;2022-10-30T05:00:46;100236.75;;;15.21;78.29
20755;BME280;26385;48.470;7.938;2022-10-30T05:03:19;100243.72;;;15.21;78.54
20755;BME280;26385;48.470;7.938;2022-10-30T05:05:46;100226.34;;;15.29;78.58
20755;BME280;26385;48.470;7.938;2022-10-30T05:08:12;100223.72;;;15.15;78.78
20755;BME280;26385;48.470;7.938;2022-10-30T05:10:38;100231.53;;;15.18;78.59
20755;BME280;26385;48.470;7.938;2022-10-30T05:13:04;100224.59;;;15.19;77.96
20755;BME280;26385;48.470;7.938;2022-10-30T05:15:29;100220.25;;;15.19;78.19
20755;BME280;26385;48.470;7.938;2022-10-30T05:17:55;100227.22;;;15.25;77.51
20755;BME280;26385;48.470;7.938;2022-10-30T05:20:20;100218.50;;;15.18;77.41
20755;BME280;26385;48.470;7.938;2022-10-30T05:22:52;100216.75;;;15.16;77.73
20755;BME280;26385;48.470;7.938;2022-10-30T05:25:17;100220.25;;;15.26;76.70
20755;BME280;26385;48.470;7.938;2022-10-30T05:27:42;100221.13;;;15.23;76.78
20755;BME280;26385;48.470;7.938;2022-10-30T05:30:08;100208.03;;;15.11;76.94
20755;BME280;26385;48.470;7.938;2022-10-30T05:32:33;100205.44;;;15.12;77.10
20755;BME280;26385;48.470;7.938;2022-10-30T05:34:58;100213.25;;;15.09;76.80
20755;BME280;26385;48.470;7.938;2022-10-30T05:37:24;100212.41;;;15.21;75.82
20755;BME280;26385;48.470;7.938;2022-10-30T05:39:49;100216.78;;;15.24;75.84
20755;BME280;26385;48.470;7.938;2022-10-30T05:42:14;100208.91;;;15.10;76.58
20755;BME280;26385;48.470;7.938;2022-10-30T05:44:39;100206.31;;;15.17;75.74
20755;BME280;26385;48.470;7.938;2022-10-30T05:47:05;100201.09;;;15.08;76.26
20755;BME280;26385;48.470;7.938;2022-10-30T05:49:30;100208.91;;;15.10;75.94
20755;BME280;26385;48.470;7.938;2022-10-30T05:51:55;100211.50;;;15.02;76.65
20755;BME280;26385;48.470;7.938;2022-10-30T05:54:21;100207.16;;;15.09;76.24
20755;BME280;26385;48.470;7.938;2022-10-30T05:56:46;100214.13;;;15.10;76.09
20755;BME280;26385;48.470;7.938;2022-10-30T05:59:11;100214.13;;;15.11;76.10
20755;BME280;26385;48.470;7.938;2022-10-30T06:01:36;100214.16;;;15.19;75.64
20755;BME280;26385;48.470;7.938;2022-10-30T06:04:02;100224.63;;;15.33;74.96
20755;BME280;26385;48.470;7.938;2022-10-30T06:06:27;100231.59;;;15.38;77.14
20755;BME280;26385;48.470;7.938;2022-10-30T06:08:52;100222.00;;;15.37;75.96
20755;BME280;26385;48.470;7.938;2022-10-30T06:11:17;100225.50;;;15.33;76.05
20755;BME280;26385;48.470;7.938;2022-10-30T06:13:43;100219.44;;;15.43;75.29
20755;BME280;26385;48.470;7.938;2022-10-30T06:16:08;100222.91;;;15.55;75.09
20755;BME280;26385;48.470;7.938;2022-10-30T06:18:33;100221.22;;;15.63;75.68
20755;BME280;26385;48.470;7.938;2022-10-30T06:20:58;100221.19;;;15.51;77.59
20755;BME280;26385;48.470;7.938;2022-10-30T06:23:24;100224.63;;;15.46;75.17
20755;BME280;26385;48.470;7.938;2022-10-30T06:25:49;100220.28;;;15.44;74.84
20755;BME280;26385;48.470;7.938;2022-10-30T06:28:14;100228.13;;;15.33;74.41
20755;BME280;26385;48.470;7.938;2022-10-30T06:30:40;100225.47;;;15.16;75.48
20755;BME280;26385;48.470;7.938;2022-10-30T06:33:05;100222.84;;;15.21;75.30
20755;BME280;26385;48.470;7.938;2022-10-30T06:35:31;100227.16;;;15.10;75.80
20755;BME280;26385;48.470;7.938;2022-10-30T06:37:57;100220.22;;;15.09;75.57
20755;BME280;26385;48.470;7.938;2022-10-30T06:40:25;100225.41;;;15.03;75.62
20755;BME280;26385;48.470;7.938;2022-10-30T06:42:51;100233.25;;;15.10;75.81
20755;BME280;26385;48.470;7.938;2022-10-30T06:45:18;100232.31;;;14.91;75.97
20755;BME280;26385;48.470;7.938;2022-10-30T06:47:44;100235.84;;;15.01;75.64
20755;BME280;26385;48.470;7.938;2022-10-30T06:50:12;100228.88;;;15.03;75.35
20755;BME280;26385;48.470;7.938;2022-10-30T06:52:38;100227.09;;;14.90;75.75
20755;BME280;26385;48.470;7.938;2022-10-30T06:55:04;100230.59;;;14.95;75.33
20755;BME280;26385;48.470;7.938;2022-10-30T06:57:29;100240.09;;;14.87;75.85
20755;BME280;26385;48.470;7.938;2022-10-30T06:59:54;100240.97;;;14.84;76.02
20755;BME280;26385;48.470;7.938;2022-10-30T07:02:20;100243.59;;;14.81;75.74
20755;BME280;26385;48.470;7.938;2022-10-30T07:04:45;100249.72;;;14.96;75.05
20755;BME280;26385;48.470;7.938;2022-10-30T07:07:11;100238.41;;;14.90;74.78
20755;BME280;26385;48.470;7.938;2022-10-30T07:09:36;100240.22;;;15.10;74.14
20755;BME280;26385;48.470;7.938;2022-10-30T07:12:02;100251.47;;;14.97;74.08
20755;BME280;26385;48.470;7.938;2022-10-30T07:14:27;100245.44;;;15.10;73.35
20755;BME280;26385;48.470;7.938;2022-10-30T07:16:55;100250.72;;;15.36;72.56
20755;BME280;26385;48.470;7.938;2022-10-30T07:19:21;100248.13;;;15.37;71.67
20755;BME280;26385;48.470;7.938;2022-10-30T07:21:46;100251.66;;;15.47;70.83
20755;BME280;26385;48.470;7.938;2022-10-30T07:24:12;100248.16;;;15.53;70.01
20755;BME280;26385;48.470;7.938;2022-10-30T07:26:37;100250.75;;;15.43;70.35
20755;BME280;26385;48.470;7.938;2022-10-30T07:29:03;100242.94;;;15.49;70.53
20755;BME280;26385;48.470;7.938;2022-10-30T07:31:29;100251.59;;;15.38;71.11
20755;BME280;26385;48.470;7.938;2022-10-30T07:33:54;100256.81;;;15.36;71.11
20755;BME280;26385;48.470;7.938;2022-10-30T07:36:20;100254.19;;;15.27;71.76
20755;BME280;26385;48.470;7.938;2022-10-30T07:38:47;100256.75;;;15.19;72.06
20755;BME280;26385;48.470;7.938;2022-10-30T07:41:12;100253.34;;;15.37;70.78
20755;BME280;26385;48.470;7.938;2022-10-30T07:43:37;100249.84;;;15.35;70.94
20755;BME280;26385;48.470;7.938;2022-10-30T07:46:02;100249.91;;;15.49;70.77
20755;BME280;26385;48.470;7.938;2022-10-30T07:48:28;100245.59;;;15.62;69.92
20755;BME280;26385;48.470;7.938;2022-10-30T07:50:53;100249.03;;;15.58;69.64
20755;BME280;26385;48.470;7.938;2022-10-30T07:53:18;100246.44;;;15.56;68.64
20755;BME280;26385;48.470;7.938;2022-10-30T07:55:44;100253.41;;;15.56;68.69
20755;BME280;26385;48.470;7.938;2022-10-30T07:58:09;100256.88;;;15.58;68.26
20755;BME280;26385;48.470;7.938;2022-10-30T08:00:34;100249.94;;;15.63;68.14
20755;BME280;26385;48.470;7.938;2022-10-30T08:03:00;100253.44;;;15.69;67.51
20755;BME280;26385;48.470;7.938;2022-10-30T08:05:25;100248.22;;;15.88;66.82
20755;BME280;26385;48.470;7.938;2022-10-30T08:07:50;100254.31;;;16.03;65.29
20755;BME280;26385;48.470;7.938;2022-10-30T08:10:16;100257.81;;;16.21;64.96
20755;BME280;26385;48.470;7.938;2022-10-30T08:12:41;100258.69;;;16.21;65.39
20755;BME280;26385;48.470;7.938;2022-10-30T08:15:09;100265.66;;;16.07;65.50
20755;BME280;26385;48.470;7.938;2022-10-30T08:17:43;100260.44;;;16.18;65.40
20755;BME280;26385;48.470;7.938;2022-10-30T08:20:10;100269.13;;;16.20;66.05
20755;BME280;26385;48.470;7.938;2022-10-30T08:22:46;100275.22;;;16.22;66.00
20755;BME280;26385;48.470;7.938;2022-10-30T08:25:12;100264.75;;;16.37;65.57
20755;BME280;26385;48.470;7.938;2022-10-30T08:27:37;100266.50;;;16.49;65.07
20755;BME280;26385;48.470;7.938;2022-10-30T08:30:02;100276.06;;;16.54;65.74
20755;BME280;26385;48.470;7.938;2022-10-30T08:32:28;100265.59;;;16.68;65.21
20755;BME280;26385;48.470;7.938;2022-10-30T08:34:53;100263.81;;;16.85;64.60
20755;BME280;26385;48.470;7.938;2022-10-30T08:37:18;100260.28;;;16.96;65.05
20755;BME280;26385;48.470;7.938;2022-10-30T08:39:43;100261.06;;;17.14;64.83
20755;BME280;26385;48.470;7.938;2022-10-30T08:42:09;100254.09;;;17.20;64.40
20755;BME280;26385;48.470;7.938;2022-10-30T08:44:34;100256.72;;;17.18;65.29
20755;BME280;26385;48.470;7.938;2022-10-30T08:46:59;100251.44;;;17.23;64.79
20755;BME280;26385;48.470;7.938;2022-10-30T08:49:24;100254.09;;;17.18;64.45
20755;BME280;26385;48.470;7.938;2022-10-30T08:51:50;100247.97;;;17.19;64.87
20755;BME280;26385;48.470;7.938;2022-10-30T08:54:15;100249.66;;;17.29;64.40
20755;BME280;26385;48.470;7.938;2022-10-30T08:56:40;100253.16;;;17.28;63.94
20755;BME280;26385;48.470;7.938;2022-10-30T08:59:06;100252.31;;;17.28;62.89
20755;BME280;26385;48.470;7.938;2022-10-30T09:01:31;100248.75;;;17.41;62.67
20755;BME280;26385;48.470;7.938;2022-10-30T09:03:56;100251.28;;;17.52;62.30
20755;BME280;26385;48.470;7.938;2022-10-30T09:06:21;100246.03;;;17.58;61.48
20755;BME280;26385;48.470;7.938;2022-10-30T09:08:47;100252.09;;;17.66;61.83
20755;BME280;26385;48.470;7.938;2022-10-30T09:11:12;100244.00;;;17.99;61.52
20755;BME280;26385;48.470;7.938;2022-10-30T09:13:37;100247.25;;;18.27;60.73
20755;BME280;26385;48.470;7.938;2022-10-30T09:16:03;100254.88;;;18.52;60.05
20755;BME280;26385;48.470;7.938;2022-10-30T09:18:28;100250.97;;;18.90;60.36
20755;BME280;26385;48.470;7.938;2022-10-30T09:20:54;100246.22;;;19.21;59.11
20755;BME280;26385;48.470;7.938;2022-10-30T09:23:19;100260.88;;;19.38;58.84
20755;BME280;26385;48.470;7.938;2022-10-30T09:25:45;100249.97;;;19.69;57.67
20755;BME280;26385;48.470;7.938;2022-10-30T09:28:10;100244.91;;;20.09;57.23
20755;BME280;26385;48.470;7.938;2022-10-30T09:30:35;100249.69;;;20.38;56.26
20755;BME280;26385;48.470;7.938;2022-10-30T09:33:01;100243.44;;;20.45;56.30
20755;BME280;26385;48.470;7.938;2022-10-30T09:35:27;100249.38;;;20.57;56.35
20755;BME280;26385;48.470;7.938;2022-10-30T09:37:52;100236.53;;;20.85;55.70
20755;BME280;26385;48.470;7.938;2022-10-30T09:40:54;100244.97;;;21.00;55.68
20755;BME280;26385;48.470;7.938;2022-10-30T09:46:50;100244.31;;;21.34;55.44
20755;BME280;26385;48.470;7.938;2022-10-30T09:49:39;100238.25;;;21.68;54.38
20755;BME280;26385;48.470;7.938;2022-10-30T09:52:26;100249.09;;;21.92;53.70
20755;BME280;26385;48.470;7.938;2022-10-30T09:54:58;100251.63;;;22.33;53.26
20755;BME280;26385;48.470;7.938;2022-10-30T10:00:17;100243.81;;;22.62;52.17
20755;BME280;26385;48.470;7.938;2022-10-30T10:03:07;100251.06;;;22.54;52.31
20755;BME280;26385;48.470;7.938;2022-10-30T10:05:54;100247.22;;;22.98;51.96
20755;BME280;26385;48.470;7.938;2022-10-30T10:08:31;100241.25;;;22.92;51.97
20755;BME280;26385;48.470;7.938;2022-10-30T10:11:02;100228.81;;;23.25;51.34
20755;BME280;26385;48.470;7.938;2022-10-30T10:13:35;100239.16;;;23.33;51.23
20755;BME280;26385;48.470;7.938;2022-10-30T10:16:24;100232.50;;;23.77;50.19
20755;BME280;26385;48.470;7.938;2022-10-30T10:18:56;100236.28;;;24.23;49.05
20755;BME280;26385;48.470;7.938;2022-10-30T10:21:24;100234.28;;;24.56;48.40
20755;BME280;26385;48.470;7.938;2022-10-30T10:23:53;100227.91;;;24.85;48.49
20755;BME280;26385;48.470;7.938;2022-10-30T10:26:27;100229.38;;;25.17;47.07
20755;BME280;26385;48.470;7.938;2022-10-30T10:29:59;100227.97;;;25.30;44.83
20755;BME280;26385;48.470;7.938;2022-10-30T10:32:26;100224.78;;;24.97;45.72
20755;BME280;26385;48.470;7.938;2022-10-30T10:35:23;100232.13;;;25.14;44.70
20755;BME280;26385;48.470;7.938;2022-10-30T10:37:58;100226.41;;;25.01;45.54
20755;BME280;26385;48.470;7.938;2022-10-30T10:40:49;100227.19;;;25.05;45.38
20755;BME280;26385;48.470;7.938;2022-10-30T10:43:32;100224.50;;;25.28;45.91
20755;BME280;26385;48.470;7.938;2022-10-30T10:46:33;100228.44;;;25.41;45.42
20755;BME280;26385;48.470;7.938;2022-10-30T10:49:19;100228.66;;;25.35;45.25
20755;BME280;26385;48.470;7.938;2022-10-30T10:52:36;100225.19;;;25.57;46.01
20755;BME280;26385;48.470;7.938;2022-10-30T10:54:48;100224.66;;;25.47;45.33
20755;BME280;26385;48.470;7.938;2022-10-30T10:57:25;100216.69;;;25.47;45.35
20755;BME280;26385;48.470;7.938;2022-10-30T10:59:56;100218.84;;;25.37;45.62
20755;BME280;26385;48.470;7.938;2022-10-30T11:05:07;100221.50;;;25.37;46.06
20755;BME280;26385;48.470;7.938;2022-10-30T11:07:44;100228.44;;;25.18;46.73
20755;BME280;26385;48.470;7.938;2022-10-30T11:10:12;100223.53;;;25.31;46.53
20755;BME280;26385;48.470;7.938;2022-10-30T11:12:38;100224.00;;;25.18;46.58
20755;BME280;26385;48.470;7.938;2022-10-30T11:17:51;100209.66;;;25.24;47.24
20755;BME280;26385;48.470;7.938;2022-10-30T11:20:28;100207.44;;;25.35;46.93
20755;BME280;26385;48.470;7.938;2022-10-30T11:22:53;100214.34;;;25.17;47.47
20755;BME280;26385;48.470;7.938;2022-10-30T11:25:24;100204.53;;;25.19;47.20
20755;BME280;26385;48.470;7.938;2022-10-30T11:27:58;100206.09;;;25.25;47.08
20755;BME280;26385;48.470;7.938;2022-10-30T11:30:26;100205.16;;;25.26;46.61
20755;BME280;26385;48.470;7.938;2022-10-30T11:32:53;100212.41;;;25.21;46.72
20755;BME280;26385;48.470;7.938;2022-10-30T11:35:19;100206.44;;;25.16;46.80
20755;BME280;26385;48.470;7.938;2022-10-30T11:40:30;100206.75;;;25.30;46.66
20755;BME280;26385;48.470;7.938;2022-10-30T11:42:58;100205.84;;;25.31;47.21
20755;BME280;26385;48.470;7.938;2022-10-30T11:47:56;100200.59;;;25.30;47.73
20755;BME280;26385;48.470;7.938;2022-10-30T11:50:24;100211.19;;;25.30;47.49
20755;BME280;26385;48.470;7.938;2022-10-30T11:53:02;100211.72;;;25.39;47.43
20755;BME280;26385;48.470;7.938;2022-10-30T11:55:44;100214.13;;;25.22;47.27
20755;BME280;26385;48.470;7.938;2022-10-30T11:58:28;100199.66;;;25.31;47.91
20755;BME280;26385;48.470;7.938;2022-10-30T12:01:04;100208.19;;;25.39;47.46
20755;BME280;26385;48.470;7.938;2022-10-30T12:03:38;100201.16;;;25.38;47.40
20755;BME280;26385;48.470;7.938;2022-10-30T12:06:08;100200.78;;;25.47;46.81
20755;BME280;26385;48.470;7.938;2022-10-30T12:08:33;100202.28;;;25.09;46.90
20755;BME280;26385;48.470;7.938;2022-10-30T12:11:01;100197.56;;;25.17;47.17
20755;BME280;26385;48.470;7.938;2022-10-30T12:13:32;100196.63;;;25.18;47.57
20755;BME280;26385;48.470;7.938;2022-10-30T12:16:05;100188.00;;;25.13;47.88
20755;BME280;26385;48.470;7.938;2022-10-30T12:18:32;100185.25;;;25.16;47.59
20755;BME280;26385;48.470;7.938;2022-10-30T12:20:58;100174.13;;;25.28;47.84
20755;BME280;26385;48.470;7.938;2022-10-30T12:23:25;100183.34;;;25.41;47.49
20755;BME280;26385;48.470;7.938;2022-10-30T12:26:14;100178.47;;;25.52;47.81
20755;BME280;26385;48.470;7.938;2022-10-30T12:28:38;100176.03;;;25.03;47.72
20755;BME280;26385;48.470;7.938;2022-10-30T12:36:14;100164.50;;;25.04;48.93
20755;BME280;26385;48.470;7.938;2022-10-30T12:52:14;100161.53;;;25.55;48.62
20755;BME280;26385;48.470;7.938;2022-10-30T12:54:56;100153.88;;;25.49;49.41
20755;BME280;26385;48.470;7.938;2022-10-30T12:57:27;100157.44;;;25.48;49.38
20755;BME280;26385;48.470;7.938;2022-10-30T13:00:03;100153.09;;;25.67;48.97
20755;BME280;26385;48.470;7.938;2022-10-30T13:02:57;100153.69;;;25.96;49.59
20755;BME280;26385;48.470;7.938;2022-10-30T13:05:39;100146.19;;;26.05;49.92
20755;BME280;26385;48.470;7.938;2022-10-30T13:08:31;100142.47;;;25.89;48.39
20755;BME280;26385;48.470;7.938;2022-10-30T13:13:36;100134.66;;;26.06;47.45
20755;BME280;26385;48.470;7.938;2022-10-30T13:16:09;100136.50;;;26.25;47.51
20755;BME280;26385;48.470;7.938;2022-10-30T13:18:36;100130.91;;;26.31;46.91
20755;BME280;26385;48.470;7.938;2022-10-30T13:21:18;100135.22;;;26.13;47.64
20755;BME280;26385;48.470;7.938;2022-10-30T13:23:59;100137.22;;;25.88;47.63
20755;BME280;26385;48.470;7.938;2022-10-30T13:26:47;100129.47;;;25.83;47.66
20755;BME280;26385;48.470;7.938;2022-10-30T13:29:43;100134.09;;;25.78;47.66
20755;BME280;26385;48.470;7.938;2022-10-30T13:32:44;100134.72;;;25.63;48.55
20755;BME280;26385;48.470;7.938;2022-10-30T13:37:52;100126.09;;;25.36;47.61
20755;BME280;26385;48.470;7.938;2022-10-30T13:43:31;100120.78;;;25.14;51.13
20755;BME280;26385;48.470;7.938;2022-10-30T13:46:26;100135.25;;;25.07;51.25
20755;BME280;26385;48.470;7.938;2022-10-30T13:52:05;100125.66;;;25.03;50.93
20755;BME280;26385;48.470;7.938;2022-10-30T13:54:56;100128.31;;;25.03;50.50
20755;BME280;26385;48.470;7.938;2022-10-30T13:57:46;100124.97;;;24.97;50.67
20755;BME280;26385;48.470;7.938;2022-10-30T14:00:21;100118.91;;;24.94;50.06
20755;BME280;26385;48.470;7.938;2022-10-30T14:05:44;100127.06;;;24.89;49.77
20755;BME280;26385;48.470;7.938;2022-10-30T14:08:26;100130.94;;;24.79;49.40
20755;BME280;26385;48.470;7.938;2022-10-30T14:10:58;100123.28;;;24.71;49.99
20755;BME280;26385;48.470;7.938;2022-10-30T14:13:26;100122.78;;;24.62;50.61
20755;BME280;26385;48.470;7.938;2022-10-30T14:15:53;100117.75;;;24.56;50.55
20755;BME280;26385;48.470;7.938;2022-10-30T14:18:24;100122.19;;;24.55;50.26
20755;BME280;26385;48.470;7.938;2022-10-30T14:20:51;100115.41;;;24.47;49.92